Archival Weather

Agadez

Agadez, Niger (DRZA)

Report from: Thursday, September 21, 2023 11:00 AM WAT
Current time: Tuesday, July 16, 2024 4:30 PM WAT

Current weather – Weather history – Daily summaries
Weather forecast

Temperature37.0°C (98.6°F)
Heat index34.6°C (94.3°F)
Dew point6.0°C (42.8°F)
Winds 10 kts (5.1 m/s, 11.5 mph) East-Southeast (120°)
Clouds Sky clear
Altimeter29.94 in.Hg (1014 mB)
Relative humidity15 %
Density altitude2,601 ft. (793 m)
Remarks Ceiling and visibility OK
Flight conditions Visual Meteorological Conditions
Raw dataDRZA 211000Z 12010KT CAVOK 37/06 Q1014
An error has occurred. This application may no longer respond until reloaded. Reload 🗙